createdAt,value
2023-11-13T00:02:24.707Z,10.90
2023-11-13T00:05:12.337Z,8.50
2023-11-13T00:08:00.045Z,10.40
2023-11-13T00:10:47.885Z,11.10
2023-11-13T00:13:35.028Z,13.80
2023-11-13T00:16:22.473Z,15.20
2023-11-13T00:19:10.289Z,10.30
2023-11-13T00:21:57.581Z,13.00
2023-11-13T00:24:45.290Z,12.60
2023-11-13T00:27:32.404Z,11.70
2023-11-13T00:30:20.276Z,10.30
2023-11-13T00:33:07.864Z,9.30
2023-11-13T00:35:56.000Z,9.20
2023-11-13T00:38:43.233Z,8.90
2023-11-13T00:41:35.188Z,10.80
2023-11-13T00:44:22.026Z,8.40
2023-11-13T00:47:09.614Z,10.30
2023-11-13T00:49:58.159Z,11.00
2023-11-13T00:52:46.101Z,8.30
2023-11-13T00:55:34.517Z,10.90
2023-11-13T00:58:25.983Z,13.60
2023-11-13T01:01:15.644Z,15.90
2023-11-13T01:04:05.954Z,19.20
2023-11-13T01:06:57.396Z,15.40
2023-11-13T01:09:46.978Z,11.60
2023-11-13T01:12:34.486Z,11.70
2023-11-13T01:15:22.380Z,9.60
2023-11-13T01:18:10.334Z,9.30
2023-11-13T01:20:57.881Z,11.70
2023-11-13T01:23:45.663Z,13.40
2023-11-13T01:26:32.410Z,9.80
2023-11-13T01:29:21.543Z,11.70
2023-11-13T01:32:08.774Z,11.90
2023-11-13T01:34:55.811Z,12.80
2023-11-13T01:37:44.788Z,13.50
2023-11-13T01:40:33.578Z,8.90
2023-11-13T01:43:22.521Z,11.00
2023-11-13T01:46:11.480Z,10.80
2023-11-13T01:49:00.647Z,12.40
2023-11-13T01:51:49.104Z,11.70
2023-11-13T01:54:36.692Z,13.80
2023-11-13T01:57:24.253Z,11.40
2023-11-13T02:00:12.347Z,12.70
2023-11-13T02:03:18.553Z,11.10
2023-11-13T02:06:07.298Z,10.40
2023-11-13T02:08:55.347Z,11.30
2023-11-13T02:11:43.523Z,10.60
2023-11-13T02:14:30.780Z,10.90
2023-11-13T02:17:18.620Z,11.50
2023-11-13T02:20:08.420Z,9.20
2023-11-13T02:22:56.561Z,10.80
2023-11-13T02:25:50.415Z,10.80
2023-11-13T02:28:37.637Z,9.00
2023-11-13T02:31:25.983Z,10.90
2023-11-13T02:34:13.919Z,8.00
2023-11-13T02:37:02.281Z,11.70
2023-11-13T02:39:49.943Z,9.90
2023-11-13T02:42:41.534Z,10.10
2023-11-13T02:45:29.354Z,11.50
2023-11-13T02:48:17.090Z,10.10
2023-11-13T02:51:04.272Z,10.10
2023-11-13T02:53:51.772Z,12.20
2023-11-13T02:56:39.146Z,12.10
2023-11-13T02:59:27.282Z,9.60
2023-11-13T03:02:16.079Z,9.40
2023-11-13T03:05:03.604Z,9.60
2023-11-13T03:07:51.283Z,7.50
2023-11-13T03:10:38.753Z,7.70
2023-11-13T03:13:25.830Z,8.90
2023-11-13T03:16:14.197Z,11.00
2023-11-13T03:19:01.420Z,7.70
2023-11-13T03:21:48.988Z,9.80
2023-11-13T03:24:35.969Z,9.10
2023-11-13T03:27:24.003Z,8.90
2023-11-13T03:30:11.793Z,9.60
2023-11-13T03:32:59.124Z,13.70
2023-11-13T03:35:46.505Z,10.70
2023-11-13T03:38:33.798Z,9.50
2023-11-13T03:41:21.310Z,9.20
2023-11-13T03:44:10.064Z,8.20
2023-11-13T03:46:56.907Z,11.30
2023-11-13T03:49:45.212Z,11.00
2023-11-13T03:52:33.062Z,9.40
2023-11-13T03:55:21.700Z,10.60
2023-11-13T03:58:10.250Z,9.60
2023-11-13T04:00:58.625Z,8.90
2023-11-13T04:03:46.646Z,9.40
2023-11-13T04:06:34.683Z,11.80
2023-11-13T04:09:22.679Z,16.60
2023-11-13T04:12:10.722Z,11.40
2023-11-13T04:14:57.585Z,9.80
2023-11-13T04:17:45.635Z,10.20
2023-11-13T04:20:33.587Z,9.00
2023-11-13T04:23:20.723Z,7.30
2023-11-13T04:26:08.297Z,40.10
2023-11-13T04:28:55.818Z,37.30
2023-11-13T04:31:42.813Z,55.40
2023-11-13T04:34:30.055Z,20.40
2023-11-13T04:37:17.818Z,12.10
2023-11-13T04:40:06.461Z,13.40
2023-11-13T04:42:53.727Z,10.80
2023-11-13T04:45:42.990Z,9.50
2023-11-13T04:48:30.862Z,14.70
2023-11-13T04:51:17.793Z,16.50
2023-11-13T04:54:05.162Z,15.00
2023-11-13T04:56:52.942Z,16.20
2023-11-13T04:59:40.405Z,12.60
2023-11-13T05:02:27.982Z,11.50
2023-11-13T05:05:14.949Z,13.00
2023-11-13T05:08:02.181Z,14.30
2023-11-13T05:10:50.000Z,9.00
2023-11-13T05:13:37.984Z,8.60
2023-11-13T05:16:26.256Z,7.40
2023-11-13T05:19:14.193Z,6.60
2023-11-13T05:22:02.155Z,6.30
2023-11-13T05:24:49.595Z,5.00
2023-11-13T05:27:36.585Z,5.90
2023-11-13T05:30:23.467Z,8.00
2023-11-13T05:33:11.048Z,9.30
2023-11-13T05:35:59.121Z,7.00
2023-11-13T05:38:46.660Z,6.50
2023-11-13T05:41:33.946Z,7.30
2023-11-13T05:44:21.241Z,10.70
2023-11-13T05:47:09.577Z,12.10
2023-11-13T05:49:58.075Z,11.90
2023-11-13T05:52:47.888Z,7.10
2023-11-13T05:55:38.083Z,9.20
2023-11-13T05:58:26.283Z,7.10
2023-11-13T06:01:17.577Z,8.30
2023-11-13T06:04:05.533Z,11.00
2023-11-13T06:06:53.357Z,9.60
2023-11-13T06:09:43.595Z,7.50
2023-11-13T06:12:31.994Z,7.40
2023-11-13T06:15:21.459Z,7.60
2023-11-13T06:18:09.348Z,7.40
2023-11-13T06:20:57.157Z,7.20
2023-11-13T06:23:44.525Z,6.10
2023-11-13T06:26:32.273Z,6.90
2023-11-13T06:29:20.256Z,8.00
2023-11-13T06:32:08.965Z,6.70
2023-11-13T06:34:57.500Z,6.20
2023-11-13T06:37:44.961Z,10.20
2023-11-13T06:40:32.580Z,8.80
2023-11-13T06:43:20.632Z,8.60
2023-11-13T06:46:08.071Z,7.40
2023-11-13T06:48:55.475Z,7.80
2023-11-13T06:51:42.901Z,10.00
2023-11-13T06:54:30.807Z,8.20
2023-11-13T06:57:18.093Z,5.80
2023-11-13T07:00:05.983Z,8.40
2023-11-13T07:02:53.415Z,6.30
2023-11-13T07:05:42.237Z,7.50
2023-11-13T07:08:29.389Z,4.60
2023-11-13T07:11:19.432Z,11.50
2023-11-13T07:14:09.981Z,7.50
2023-11-13T07:16:58.264Z,8.60
2023-11-13T07:19:45.086Z,9.20
2023-11-13T07:22:33.184Z,10.10
2023-11-13T07:25:21.859Z,7.70
2023-11-13T07:28:09.489Z,7.90
2023-11-13T07:30:57.270Z,8.90
2023-11-13T07:33:45.025Z,9.30
2023-11-13T07:36:33.096Z,9.00
2023-11-13T07:39:20.397Z,8.10
2023-11-13T07:42:07.279Z,7.50
2023-11-13T07:44:56.740Z,8.00
2023-11-13T07:47:44.760Z,7.90
2023-11-13T07:50:32.616Z,8.30
2023-11-13T07:53:20.521Z,7.40
2023-11-13T07:56:10.942Z,8.30
2023-11-13T07:59:03.496Z,8.50
2023-11-13T08:04:41.522Z,9.40
2023-11-13T08:07:29.479Z,8.00
2023-11-13T08:10:16.809Z,7.70
2023-11-13T08:13:04.818Z,8.10
2023-11-13T08:15:54.341Z,10.00
2023-11-13T08:18:41.581Z,14.80
2023-11-13T08:21:31.284Z,8.00
2023-11-13T08:24:21.162Z,8.20
2023-11-13T08:27:08.350Z,13.50
2023-11-13T08:29:55.772Z,12.90
2023-11-13T08:32:44.044Z,9.50
2023-11-13T08:35:33.957Z,7.90
2023-11-13T08:38:21.267Z,8.30
2023-11-13T08:41:08.629Z,9.50
2023-11-13T08:43:56.619Z,12.10
2023-11-13T08:46:44.693Z,14.30
2023-11-13T08:49:35.208Z,8.50
2023-11-13T08:52:23.878Z,40.80
2023-11-13T08:55:11.905Z,18.70
2023-11-13T08:57:58.882Z,21.80
2023-11-13T09:00:46.469Z,16.80
2023-11-13T09:03:34.766Z,6.70
2023-11-13T09:06:22.395Z,6.80
2023-11-13T09:09:13.820Z,9.40
2023-11-13T09:12:02.906Z,11.60
2023-11-13T09:14:50.472Z,8.40
2023-11-13T09:17:42.781Z,11.50
2023-11-13T09:20:30.849Z,6.50
2023-11-13T09:23:18.537Z,6.30
2023-11-13T09:26:06.065Z,3.60
2023-11-13T09:28:54.241Z,9.20
2023-11-13T09:31:41.519Z,9.90
2023-11-13T09:34:28.988Z,5.50
2023-11-13T09:37:17.018Z,8.50
2023-11-13T09:40:04.520Z,9.10
2023-11-13T09:42:55.708Z,6.40
2023-11-13T09:45:45.756Z,5.20
2023-11-13T09:48:36.192Z,8.60
2023-11-13T09:51:30.391Z,9.70
2023-11-13T09:54:19.042Z,6.00
2023-11-13T09:57:10.845Z,8.00
2023-11-13T09:59:58.313Z,7.70
2023-11-13T10:02:47.711Z,8.80
2023-11-13T10:05:37.339Z,6.60
2023-11-13T10:08:26.367Z,6.10
2023-11-13T10:11:14.559Z,8.10
2023-11-13T10:14:17.834Z,8.20
2023-11-13T10:17:05.739Z,7.40
2023-11-13T10:20:00.633Z,6.70
2023-11-13T10:23:05.349Z,5.30
2023-11-13T10:25:58.203Z,7.20
2023-11-13T10:28:46.937Z,6.80
2023-11-13T10:31:43.912Z,4.40
2023-11-13T10:34:50.648Z,7.30
2023-11-13T10:37:39.575Z,5.40
2023-11-13T10:40:29.829Z,6.90
2023-11-13T10:43:30.115Z,3.80
2023-11-13T10:46:27.977Z,5.00
2023-11-13T10:49:15.807Z,5.70
2023-11-13T10:52:04.112Z,7.30
2023-11-13T10:54:52.732Z,6.80
2023-11-13T10:57:41.082Z,6.90
2023-11-13T11:00:30.916Z,6.70
2023-11-13T11:03:19.772Z,8.50
2023-11-13T11:06:12.624Z,7.60
2023-11-13T11:09:02.507Z,8.20
2023-11-13T11:11:50.291Z,7.70
2023-11-13T11:14:49.814Z,7.70
2023-11-13T11:17:39.234Z,6.80
2023-11-13T11:20:30.291Z,9.60
2023-11-13T11:23:20.758Z,8.90
2023-11-13T11:26:08.638Z,9.60
2023-11-13T11:28:56.273Z,7.20
2023-11-13T11:31:44.784Z,6.10
2023-11-13T11:34:32.448Z,6.80
2023-11-13T11:37:20.680Z,7.60
2023-11-13T11:40:13.709Z,7.40
2023-11-13T11:43:03.103Z,6.70
2023-11-13T11:45:55.539Z,4.50
2023-11-13T11:48:42.795Z,7.90
2023-11-13T11:51:29.874Z,7.00
2023-11-13T11:54:17.387Z,7.10
2023-11-13T11:57:05.813Z,7.70
2023-11-13T11:59:53.389Z,8.40
2023-11-13T12:02:41.642Z,6.30
2023-11-13T12:05:28.899Z,6.80
2023-11-13T12:08:15.984Z,7.00
2023-11-13T12:11:04.537Z,6.40
2023-11-13T12:13:51.639Z,6.80
2023-11-13T12:16:39.145Z,6.10
2023-11-13T12:19:26.872Z,5.50
2023-11-13T12:22:15.488Z,6.30
2023-11-13T12:25:05.261Z,7.30
2023-11-13T12:27:53.311Z,6.40
2023-11-13T12:30:40.653Z,6.50
2023-11-13T12:33:29.409Z,8.60
2023-11-13T12:36:16.699Z,5.70
2023-11-13T12:39:05.918Z,6.60
2023-11-13T12:41:54.206Z,6.00
2023-11-13T12:44:41.111Z,5.80
2023-11-13T12:47:29.748Z,4.90
2023-11-13T12:50:18.573Z,5.60
2023-11-13T12:53:06.010Z,5.00
2023-11-13T12:55:56.042Z,4.70
2023-11-13T12:58:44.578Z,3.80
2023-11-13T13:01:33.729Z,5.00
2023-11-13T13:04:22.368Z,4.90
2023-11-13T13:07:14.284Z,6.30
2023-11-13T13:10:03.443Z,4.30
2023-11-13T13:12:51.726Z,5.10
2023-11-13T13:15:38.942Z,5.50
2023-11-13T13:18:28.557Z,4.00
2023-11-13T13:21:16.626Z,5.60
2023-11-13T13:24:08.065Z,5.00
2023-11-13T13:26:57.133Z,23.30
2023-11-13T13:29:44.815Z,8.30
2023-11-13T13:32:32.655Z,5.50
2023-11-13T13:35:21.824Z,5.10
2023-11-13T13:38:19.176Z,3.70
2023-11-13T13:41:06.958Z,5.80
2023-11-13T13:43:54.007Z,16.10
2023-11-13T13:46:42.324Z,10.30
2023-11-13T13:49:33.067Z,7.10
2023-11-13T13:52:21.808Z,6.10
2023-11-13T13:55:11.879Z,6.90
2023-11-13T13:58:02.855Z,8.10
2023-11-13T14:00:50.552Z,6.20
2023-11-13T14:03:37.484Z,7.20
2023-11-13T14:06:24.613Z,5.30
2023-11-13T14:09:15.894Z,5.10
2023-11-13T14:12:12.564Z,4.80
2023-11-13T14:15:04.265Z,4.40
2023-11-13T14:17:54.902Z,4.10
2023-11-13T14:20:48.160Z,5.00
2023-11-13T14:23:35.720Z,4.30
2023-11-13T14:26:23.206Z,5.50
2023-11-13T14:29:16.760Z,5.60
2023-11-13T14:32:05.994Z,5.10
2023-11-13T14:34:54.718Z,5.30
2023-11-13T14:37:42.407Z,4.00
2023-11-13T14:40:31.760Z,4.90
2023-11-13T14:43:21.743Z,5.90
2023-11-13T14:46:09.198Z,6.60
2023-11-13T14:48:57.531Z,7.10
2023-11-13T14:51:45.280Z,6.00
2023-11-13T14:54:32.524Z,5.80
2023-11-13T14:57:21.300Z,5.80
2023-11-13T15:00:12.341Z,4.30
2023-11-13T15:02:59.758Z,4.50
2023-11-13T15:05:47.638Z,3.90
2023-11-13T15:08:35.616Z,3.50
2023-11-13T15:11:23.570Z,4.20
2023-11-13T15:14:10.206Z,3.00
2023-11-13T15:16:59.492Z,10.60
2023-11-13T15:19:47.396Z,20.10
2023-11-13T15:22:46.333Z,39.70
2023-11-13T15:25:42.716Z,27.20
2023-11-13T15:28:30.113Z,23.30
2023-11-13T15:31:17.213Z,20.90
2023-11-13T15:34:05.213Z,17.90
2023-11-13T15:36:54.408Z,10.40
2023-11-13T15:39:41.816Z,12.50
2023-11-13T15:42:30.064Z,12.70
2023-11-13T15:45:17.510Z,29.60
2023-11-13T15:48:05.726Z,39.40
2023-11-13T15:50:53.686Z,27.00
2023-11-13T15:53:41.240Z,34.60
2023-11-13T15:56:28.472Z,25.50
2023-11-13T15:59:15.248Z,42.20
2023-11-13T16:02:04.657Z,30.90
2023-11-13T16:04:52.602Z,23.90
2023-11-13T16:07:40.157Z,21.60
2023-11-13T16:10:27.232Z,35.00
2023-11-13T16:13:15.311Z,22.50
2023-11-13T16:16:03.082Z,20.80
2023-11-13T16:18:50.383Z,14.50
2023-11-13T16:21:37.948Z,16.60
2023-11-13T16:27:33.378Z,17.10
2023-11-13T16:30:23.380Z,13.90
2023-11-13T16:33:12.442Z,15.70
2023-11-13T16:36:00.040Z,18.80
2023-11-13T16:38:48.449Z,21.90
2023-11-13T16:41:35.635Z,19.40
2023-11-13T16:44:24.201Z,24.20
2023-11-13T16:47:12.157Z,28.60
2023-11-13T16:49:58.883Z,21.40
2023-11-13T16:52:46.347Z,26.30
2023-11-13T16:55:37.391Z,22.70
2023-11-13T16:58:24.696Z,21.60
2023-11-13T17:01:11.283Z,26.10
2023-11-13T17:03:59.270Z,16.10
2023-11-13T17:06:47.195Z,28.30
2023-11-13T17:09:34.350Z,28.60
2023-11-13T17:12:21.450Z,28.70
2023-11-13T17:15:10.083Z,24.30
2023-11-13T17:17:57.129Z,39.00
2023-11-13T17:20:45.161Z,33.00
2023-11-13T17:23:32.134Z,34.80
2023-11-13T17:26:20.936Z,29.10
2023-11-13T17:29:08.642Z,34.10
2023-11-13T17:31:55.654Z,42.80
2023-11-13T17:34:43.389Z,40.10
2023-11-13T17:37:31.517Z,36.00
2023-11-13T17:40:20.183Z,27.80
2023-11-13T17:43:07.628Z,21.70
2023-11-13T17:45:58.172Z,21.20
2023-11-13T17:48:46.391Z,16.30
2023-11-13T17:51:33.663Z,19.70
2023-11-13T17:54:21.670Z,19.90
2023-11-13T17:57:11.296Z,24.80
2023-11-13T17:59:58.782Z,19.20
2023-11-13T18:02:46.333Z,20.30
2023-11-13T18:05:33.691Z,24.50
2023-11-13T18:08:23.836Z,27.80
2023-11-13T18:11:11.940Z,29.40
2023-11-13T18:13:59.265Z,17.30
2023-11-13T18:16:46.845Z,21.10
2023-11-13T18:19:34.532Z,30.00
2023-11-13T18:22:23.491Z,18.20
2023-11-13T18:25:13.267Z,26.40
2023-11-13T18:28:01.059Z,18.90
2023-11-13T18:30:50.284Z,19.70
2023-11-13T18:33:41.831Z,23.20
2023-11-13T18:36:29.281Z,18.50
2023-11-13T18:39:16.571Z,22.40
2023-11-13T18:42:03.798Z,20.80
2023-11-13T18:44:51.247Z,21.60
2023-11-13T18:47:38.663Z,21.60
2023-11-13T18:50:25.953Z,19.80
2023-11-13T18:53:13.508Z,22.80
2023-11-13T18:56:01.536Z,29.70
2023-11-13T18:58:49.249Z,25.50
2023-11-13T19:01:36.635Z,31.00
2023-11-13T19:04:23.889Z,28.50
2023-11-13T19:07:12.047Z,23.50
2023-11-13T19:10:02.412Z,24.50
2023-11-13T19:12:51.212Z,16.20
2023-11-13T19:15:40.910Z,21.10
2023-11-13T19:18:30.352Z,27.10
2023-11-13T19:21:20.475Z,25.80
2023-11-13T19:24:07.698Z,26.10
2023-11-13T19:26:54.948Z,21.80
2023-11-13T19:29:42.194Z,22.60
2023-11-13T19:32:30.041Z,22.90
2023-11-13T19:35:17.931Z,22.30
2023-11-13T19:38:05.279Z,19.80
2023-11-13T19:40:52.788Z,21.50
2023-11-13T19:43:41.667Z,27.10
2023-11-13T19:46:29.529Z,25.70
2023-11-13T19:49:17.125Z,19.20
2023-11-13T19:52:04.291Z,22.60
2023-11-13T19:54:52.022Z,25.10
2023-11-13T19:57:39.310Z,19.70
2023-11-13T20:00:28.684Z,21.60
2023-11-13T20:03:16.965Z,19.30
2023-11-13T20:06:04.250Z,21.90
2023-11-13T20:08:52.280Z,21.90
2023-11-13T20:11:39.822Z,19.60
2023-11-13T20:14:27.281Z,23.10
2023-11-13T20:17:14.257Z,22.40
2023-11-13T20:20:01.844Z,20.80
2023-11-13T20:22:49.005Z,19.20
2023-11-13T20:25:36.564Z,22.00
2023-11-13T20:28:24.362Z,20.50
2023-11-13T20:31:14.685Z,22.00
2023-11-13T20:34:04.903Z,21.10
2023-11-13T20:36:52.965Z,18.10
2023-11-13T20:39:40.090Z,23.90
2023-11-13T20:42:28.091Z,17.70
2023-11-13T20:45:15.527Z,19.40
2023-11-13T20:48:02.548Z,19.60
2023-11-13T20:50:50.444Z,19.90
2023-11-13T20:53:37.956Z,18.60
2023-11-13T20:56:25.841Z,20.40
2023-11-13T20:59:16.251Z,19.50
2023-11-13T21:02:07.040Z,17.70
2023-11-13T21:04:54.203Z,16.00
2023-11-13T21:07:41.741Z,18.30
2023-11-13T21:10:29.298Z,17.60
2023-11-13T21:13:20.516Z,21.90
2023-11-13T21:16:08.444Z,13.30
2023-11-13T21:18:57.289Z,19.00
2023-11-13T21:21:44.626Z,22.50
2023-11-13T21:24:32.909Z,17.20
2023-11-13T21:27:20.141Z,20.40
2023-11-13T21:30:11.457Z,19.10
2023-11-13T21:32:58.979Z,32.20
2023-11-13T21:35:46.181Z,17.10
2023-11-13T21:38:33.284Z,16.40
2023-11-13T21:41:20.920Z,14.20
2023-11-13T21:44:08.283Z,14.20
2023-11-13T21:46:55.704Z,15.40
2023-11-13T21:49:43.701Z,13.10
2023-11-13T21:52:31.408Z,14.10
2023-11-13T21:55:19.227Z,14.30
2023-11-13T21:58:06.809Z,15.10
2023-11-13T22:00:57.924Z,15.40
2023-11-13T22:03:45.572Z,17.10
2023-11-13T22:06:33.528Z,12.70
2023-11-13T22:09:21.747Z,15.10
2023-11-13T22:12:09.634Z,15.20
2023-11-13T22:14:59.601Z,16.40
2023-11-13T22:17:48.306Z,15.10
2023-11-13T22:20:35.976Z,18.80
2023-11-13T22:23:23.523Z,15.40
2023-11-13T22:26:11.366Z,22.80
2023-11-13T22:28:58.760Z,14.40
2023-11-13T22:31:46.672Z,15.30
2023-11-13T22:34:35.838Z,13.40
2023-11-13T22:37:23.187Z,15.10
2023-11-13T22:40:10.977Z,13.40
2023-11-13T22:42:58.547Z,24.50
2023-11-13T22:45:45.889Z,13.50
2023-11-13T22:48:33.444Z,23.40
2023-11-13T22:51:21.448Z,17.30
2023-11-13T22:54:10.660Z,15.30
2023-11-13T22:56:59.087Z,12.60
2023-11-13T22:59:48.222Z,10.60
2023-11-13T23:02:36.215Z,12.70
2023-11-13T23:05:24.545Z,12.10
2023-11-13T23:08:12.248Z,15.60
2023-11-13T23:10:59.656Z,12.30
2023-11-13T23:13:46.862Z,10.40
2023-11-13T23:17:16.299Z,8.60
2023-11-13T23:20:05.390Z,12.10
2023-11-13T23:22:53.356Z,13.30
2023-11-13T23:25:41.365Z,16.60
2023-11-13T23:28:28.826Z,11.50
2023-11-13T23:31:16.094Z,9.90
2023-11-13T23:34:03.432Z,11.80
2023-11-13T23:36:51.460Z,10.30
2023-11-13T23:39:38.501Z,17.60
2023-11-13T23:42:25.833Z,13.10
2023-11-13T23:45:13.112Z,19.70
2023-11-13T23:48:01.409Z,15.50
2023-11-13T23:50:48.959Z,12.60
2023-11-13T23:53:36.093Z,11.10
2023-11-13T23:56:24.957Z,19.80
2023-11-13T23:59:13.044Z,21.30
